Time;durP1;ratioP1;P1;durP2;ratioP2;P2;SDS_P1;SDS_P2;PMS_P1;PMS_P2;Temp;Humidity;BMP_temperature;BMP_pressure;BME280_temperature;BME280_humidity;BME280_pressure;Samples;Min_cycle;Max_cycle;Signal;HPM_P1;HPM_P2
2022/05/16 00:00:27;;;;;;;3.53;3.37;;;;;;;;;;5115051;28;20404;-65
2022/05/16 00:02:54;;;;;;;4.40;3.23;;;;;;;;;;5115030;28;20417;-61
2022/05/16 00:05:20;;;;;;;3.57;3.27;;;;;;;;;;5114971;28;20402;-61
2022/05/16 00:07:47;;;;;;;4.07;3.67;;;;;;;;;;5115220;28;20417;-61
2022/05/16 00:10:13;;;;;;;3.87;3.50;;;;;;;;;;5114919;28;20402;-62
2022/05/16 00:12:39;;;;;;;6.93;3.27;;;;;;;;;;5114764;28;20468;-62
2022/05/16 00:15:06;;;;;;;3.87;3.63;;;;;;;;;;5114740;28;20444;-66
2022/05/16 00:17:32;;;;;;;3.40;3.10;;;;;;;;;;5114636;28;20449;-65
2022/05/16 00:19:58;;;;;;;3.60;3.30;;;;;;;;;;5114877;28;20413;-63
2022/05/16 00:22:27;;;;;;;4.10;3.80;;;;;;;;;;5114614;28;20406;-61
2022/05/16 00:24:53;;;;;;;3.10;3.00;;;;;;;;;;5114570;28;20406;-62
2022/05/16 00:27:19;;;;;;;3.07;3.07;;;;;;;;;;5114472;28;20444;-62
2022/05/16 00:29:45;;;;;;;3.33;3.10;;;;;;;;;;5114405;28;20399;-62
2022/05/16 00:32:13;;;;;;;3.03;2.90;;;;;;;;;;5114441;28;20418;-61
2022/05/16 00:34:39;;;;;;;6.33;3.40;;;;;;;;;;5114424;28;20395;-62
2022/05/16 00:37:06;;;;;;;3.43;3.33;;;;;;;;;;5114271;28;20480;-62
2022/05/16 00:39:32;;;;;;;3.50;3.40;;;;;;;;;;5114300;28;20411;-62
2022/05/16 00:41:58;;;;;;;3.67;2.93;;;;;;;;;;5114261;28;20402;-65
2022/05/16 00:44:24;;;;;;;3.40;3.20;;;;;;;;;;5114330;28;20459;-65
2022/05/16 00:46:50;;;;;;;3.90;3.70;;;;;;;;;;5114493;28;20413;-64
2022/05/16 00:49:20;;;;;;;4.07;3.73;;;;;;;;;;5114408;28;20423;-61
2022/05/16 00:52:04;;;;;;;4.63;3.50;;;;;;;;;;5114124;28;20404;-61
2022/05/16 00:54:35;;;;;;;3.60;3.50;;;;;;;;;;5114098;28;20492;-62
2022/05/16 00:57:04;;;;;;;4.43;3.73;;;;;;;;;;5113805;28;20455;-61
2022/05/16 00:59:40;;;;;;;3.63;3.53;;;;;;;;;;5114121;28;20552;-63
2022/05/16 01:04:51;;;;;;;3.60;3.50;;;;;;;;;;5113994;28;20437;-61
2022/05/16 01:07:31;;;;;;;4.00;3.67;;;;;;;;;;5114222;28;20401;-62
2022/05/16 01:09:57;;;;;;;3.83;3.73;;;;;;;;;;5113931;28;20412;-61
2022/05/16 01:12:32;;;;;;;4.33;4.03;;;;;;;;;;5113903;28;20434;-62
2022/05/16 01:15:00;;;;;;;4.17;3.97;;;;;;;;;;5114016;28;20454;-61
2022/05/16 01:17:26;;;;;;;3.73;3.63;;;;;;;;;;5113993;28;20499;-63
2022/05/16 01:19:52;;;;;;;4.67;4.27;;;;;;;;;;5113826;28;20467;-62
2022/05/16 01:22:22;;;;;;;4.83;3.97;;;;;;;;;;5113814;28;20443;-63
2022/05/16 01:24:48;;;;;;;4.10;3.77;;;;;;;;;;5113904;28;20954;-63
2022/05/16 01:27:14;;;;;;;6.30;3.83;;;;;;;;;;5113842;28;20913;-62
2022/05/16 01:29:40;;;;;;;3.50;3.30;;;;;;;;;;5113826;28;20418;-63
2022/05/16 01:32:06;;;;;;;4.67;3.83;;;;;;;;;;5113695;28;20889;-62
2022/05/16 01:34:32;;;;;;;4.20;3.80;;;;;;;;;;5113986;28;20482;-62
2022/05/16 01:36:58;;;;;;;4.10;3.90;;;;;;;;;;5095376;28;20954;-63
2022/05/16 01:39:24;;;;;;;4.30;4.00;;;;;;;;;;5113803;28;20423;-62
2022/05/16 01:41:50;;;;;;;4.67;3.70;;;;;;;;;;5116432;28;20409;-64
2022/05/16 01:44:16;;;;;;;4.40;4.10;;;;;;;;;;5117785;28;20403;-62
2022/05/16 01:46:42;;;;;;;5.47;4.50;;;;;;;;;;5117619;28;20413;-63
2022/05/16 01:49:09;;;;;;;3.97;3.77;;;;;;;;;;5117829;28;20449;-65
2022/05/16 01:51:36;;;;;;;4.37;4.00;;;;;;;;;;5117560;28;20398;-64
2022/05/16 01:54:03;;;;;;;5.70;4.33;;;;;;;;;;5117553;28;20811;-62
2022/05/16 01:56:30;;;;;;;4.13;3.67;;;;;;;;;;5117262;28;20498;-62
2022/05/16 01:58:56;;;;;;;4.70;3.73;;;;;;;;;;5117605;28;20472;-63
2022/05/16 02:01:22;;;;;;;4.33;4.00;;;;;;;;;;5117366;28;20448;-62
2022/05/16 02:03:49;;;;;;;5.67;3.80;;;;;;;;;;5098884;28;20411;-65
2022/05/16 02:06:16;;;;;;;4.10;3.80;;;;;;;;;;5117272;28;20474;-64
2022/05/16 02:08:43;;;;;;;3.63;3.37;;;;;;;;;;5117279;28;20407;-62
2022/05/16 02:11:09;;;;;;;5.23;4.00;;;;;;;;;;5117442;28;20762;-64
2022/05/16 02:13:36;;;;;;;10.20;4.07;;;;;;;;;;5117139;28;20423;-65
2022/05/16 02:16:02;;;;;;;5.10;4.27;;;;;;;;;;5117111;28;20491;-62
2022/05/16 02:18:29;;;;;;;4.97;4.40;;;;;;;;;;5116952;28;20473;-63
2022/05/16 02:24:38;;;;;;;3.93;3.73;;;;;;;;;;5117277;28;20386;-61
2022/05/16 02:26:25;;;;;;;3.97;3.77;;;;;;;;;;5116805;28;20935;-62
2022/05/16 02:28:52;;;;;;;6.43;4.87;;;;;;;;;;5116815;28;20407;-62
2022/05/16 02:31:20;;;;;;;3.87;3.70;;;;;;;;;;5116781;28;20410;-62
2022/05/16 02:33:46;;;;;;;7.43;4.20;;;;;;;;;;5116791;28;20450;-62
2022/05/16 02:36:12;;;;;;;6.47;4.40;;;;;;;;;;5116736;28;20475;-62
2022/05/16 02:38:38;;;;;;;4.30;4.00;;;;;;;;;;5098350;28;20983;-62
2022/05/16 02:41:03;;;;;;;4.13;3.83;;;;;;;;;;5116547;28;20894;-62
2022/05/16 02:43:29;;;;;;;3.80;3.70;;;;;;;;;;5116682;28;20406;-62
2022/05/16 02:45:55;;;;;;;4.33;4.23;;;;;;;;;;5116528;28;20431;-61
2022/05/16 02:48:21;;;;;;;4.90;4.53;;;;;;;;;;5116398;28;20792;-62
2022/05/16 02:50:47;;;;;;;4.87;4.47;;;;;;;;;;5116467;28;20438;-64
2022/05/16 02:53:14;;;;;;;5.00;3.87;;;;;;;;;;5115012;28;20404;-65
2022/05/16 02:55:40;;;;;;;6.43;3.77;;;;;;;;;;5116251;28;20488;-63
2022/05/16 02:58:08;;;;;;;4.20;4.00;;;;;;;;;;5116223;28;20460;-65
2022/05/16 03:00:34;;;;;;;4.50;4.10;;;;;;;;;;5116249;28;20407;-65
2022/05/16 03:03:00;;;;;;;6.83;3.90;;;;;;;;;;5116119;28;20415;-66
2022/05/16 03:05:26;;;;;;;4.47;4.10;;;;;;;;;;5116087;28;20431;-65
2022/05/16 03:07:52;;;;;;;3.93;3.83;;;;;;;;;;5116190;28;20404;-65
2022/05/16 03:10:18;;;;;;;3.90;3.70;;;;;;;;;;5116071;28;20787;-66
2022/05/16 03:12:45;;;;;;;4.53;4.30;;;;;;;;;;5116058;28;20412;-62
2022/05/16 03:15:13;;;;;;;5.23;4.73;;;;;;;;;;5116279;28;20433;-64
2022/05/16 03:17:39;;;;;;;4.70;4.47;;;;;;;;;;5116088;28;20857;-62
2022/05/16 03:20:07;;;;;;;6.23;3.93;;;;;;;;;;5116097;28;20414;-62
2022/05/16 03:22:33;;;;;;;4.67;4.37;;;;;;;;;;5115817;28;20389;-65
2022/05/16 03:24:59;;;;;;;4.70;4.03;;;;;;;;;;5115804;28;20398;-62
2022/05/16 03:27:25;;;;;;;5.03;4.43;;;;;;;;;;5115719;28;20466;-64
2022/05/16 03:29:51;;;;;;;3.90;3.70;;;;;;;;;;5115952;28;20401;-66
2022/05/16 03:32:18;;;;;;;4.60;4.40;;;;;;;;;;5115921;28;20414;-62
2022/05/16 03:34:43;;;;;;;4.53;4.13;;;;;;;;;;5115670;28;20388;-62
2022/05/16 03:37:09;;;;;;;4.77;4.47;;;;;;;;;;5115559;28;20467;-62
2022/05/16 03:42:20;;;;;;;5.53;5.03;;;;;;;;;;5115426;28;20405;-62
2022/05/16 03:44:47;;;;;;;5.57;5.00;;;;;;;;;;5115355;28;20408;-61
2022/05/16 03:47:13;;;;;;;5.83;5.17;;;;;;;;;;5115328;28;20416;-61
2022/05/16 03:49:38;;;;;;;12.03;5.27;;;;;;;;;;5115286;28;20398;-65
2022/05/16 03:52:04;;;;;;;4.23;4.03;;;;;;;;;;5115250;28;20993;-61
2022/05/16 03:54:30;;;;;;;4.27;4.17;;;;;;;;;;5115238;28;20411;-61
2022/05/16 03:56:56;;;;;;;4.83;4.53;;;;;;;;;;5114818;28;20834;-61
2022/05/16 03:59:22;;;;;;;4.40;4.23;;;;;;;;;;5115038;28;20542;-61
2022/05/16 04:01:49;;;;;;;4.50;4.30;;;;;;;;;;5115009;28;20407;-61
2022/05/16 04:04:16;;;;;;;4.90;4.70;;;;;;;;;;5114939;28;20413;-61
2022/05/16 04:06:42;;;;;;;5.07;4.60;;;;;;;;;;5115019;28;20401;-61
2022/05/16 04:09:08;;;;;;;4.27;3.93;;;;;;;;;;5114960;28;20400;-61
2022/05/16 04:11:34;;;;;;;5.93;4.37;;;;;;;;;;5114759;28;20418;-61
2022/05/16 04:14:01;;;;;;;5.40;4.23;;;;;;;;;;5115146;28;20409;-61
2022/05/16 04:16:27;;;;;;;5.00;4.80;;;;;;;;;;5114727;28;20419;-61
2022/05/16 04:18:53;;;;;;;4.30;3.90;;;;;;;;;;5114628;28;20468;-61
2022/05/16 04:21:19;;;;;;;4.50;4.30;;;;;;;;;;5114678;28;20427;-61
2022/05/16 04:23:45;;;;;;;6.30;4.00;;;;;;;;;;5114642;28;20880;-61
2022/05/16 04:26:11;;;;;;;8.23;5.13;;;;;;;;;;5114552;28;20478;-62
2022/05/16 04:28:37;;;;;;;6.60;4.80;;;;;;;;;;5114552;28;20408;-62
2022/05/16 04:31:03;;;;;;;4.90;4.63;;;;;;;;;;5114496;28;20405;-61
2022/05/16 04:33:33;;;;;;;5.17;4.80;;;;;;;;;;5114496;28;20509;-61
2022/05/16 04:35:59;;;;;;;9.43;6.13;;;;;;;;;;5114468;28;20496;-61
2022/05/16 04:38:25;;;;;;;6.00;4.97;;;;;;;;;;5114310;28;20466;-61
2022/05/16 04:43:36;;;;;;;5.70;5.27;;;;;;;;;;5114344;28;20423;-61
2022/05/16 04:46:06;;;;;;;4.80;4.47;;;;;;;;;;5095993;28;20575;-61
2022/05/16 04:48:33;;;;;;;5.40;5.20;;;;;;;;;;5096061;28;20508;-61
2022/05/16 04:50:59;;;;;;;5.20;4.80;;;;;;;;;;5114451;28;20441;-61
2022/05/16 04:53:25;;;;;;;6.00;5.57;;;;;;;;;;5114230;28;20412;-62
2022/05/16 04:55:51;;;;;;;5.27;4.53;;;;;;;;;;5114108;28;20474;-61
2022/05/16 04:58:17;;;;;;;4.80;4.40;;;;;;;;;;5114007;28;20491;-61
2022/05/16 05:00:43;;;;;;;4.47;4.03;;;;;;;;;;5114005;28;20393;-61
2022/05/16 05:03:09;;;;;;;6.30;4.20;;;;;;;;;;5095638;28;20955;-62
2022/05/16 05:05:35;;;;;;;4.40;4.10;;;;;;;;;;5114226;28;20409;-61
2022/05/16 05:08:01;;;;;;;4.30;4.00;;;;;;;;;;5113933;28;20492;-62
2022/05/16 05:16:09;;;;;;;9.67;7.03;;;;;;;;;;5113173;28;20391;-61
2022/05/16 05:18:36;;;;;;;3.60;3.40;;;;;;;;;;5113696;28;20474;-61
2022/05/16 05:21:02;;;;;;;4.30;4.00;;;;;;;;;;5113885;28;20406;-66
2022/05/16 05:23:28;;;;;;;5.47;3.73;;;;;;;;;;5113688;28;20841;-63
2022/05/16 05:25:54;;;;;;;8.87;4.03;;;;;;;;;;5113764;28;20511;-63
2022/05/16 05:28:20;;;;;;;3.70;3.43;;;;;;;;;;5113756;28;20447;-63
2022/05/16 05:30:46;;;;;;;7.73;4.00;;;;;;;;;;5113678;28;20428;-64
2022/05/16 05:33:12;;;;;;;4.10;3.83;;;;;;;;;;5113769;28;20408;-63
2022/05/16 05:35:38;;;;;;;8.93;3.80;;;;;;;;;;5113635;28;20781;-63
2022/05/16 05:38:04;;;;;;;7.03;3.90;;;;;;;;;;5113513;28;20560;-64
2022/05/16 05:40:30;;;;;;;6.23;3.70;;;;;;;;;;5113628;28;20405;-63
2022/05/16 05:42:56;;;;;;;4.27;3.83;;;;;;;;;;5113574;28;20408;-64
2022/05/16 05:45:22;;;;;;;5.07;3.90;;;;;;;;;;5113725;28;20502;-64
2022/05/16 05:47:48;;;;;;;3.77;3.53;;;;;;;;;;5095300;28;20426;-65
2022/05/16 05:50:15;;;;;;;12.50;3.83;;;;;;;;;;5113536;28;20413;-64
2022/05/16 05:52:41;;;;;;;3.60;3.40;;;;;;;;;;5113609;28;20815;-65
2022/05/16 05:55:07;;;;;;;5.20;3.60;;;;;;;;;;5095208;28;20464;-65
2022/05/16 05:57:33;;;;;;;3.80;3.60;;;;;;;;;;5113394;28;20470;-64
2022/05/16 05:59:59;;;;;;;5.97;4.00;;;;;;;;;;5113551;28;20464;-65
2022/05/16 06:02:25;;;;;;;10.00;3.77;;;;;;;;;;5113433;28;20417;-65
2022/05/16 06:04:51;;;;;;;3.70;3.37;;;;;;;;;;5113425;28;20407;-64
2022/05/16 06:07:17;;;;;;;9.67;4.53;;;;;;;;;;5113519;28;20409;-65
2022/05/16 06:09:43;;;;;;;4.37;4.07;;;;;;;;;;5113392;28;20464;-64
2022/05/16 06:12:10;;;;;;;7.63;3.93;;;;;;;;;;5113331;28;20402;-65
2022/05/16 06:14:36;;;;;;;9.00;4.80;;;;;;;;;;5113241;28;20401;-64
2022/05/16 06:17:02;;;;;;;5.90;4.43;;;;;;;;;;5113300;28;20404;-65
2022/05/16 06:19:28;;;;;;;34.10;4.73;;;;;;;;;;5113309;28;20845;-66
2022/05/16 06:21:55;;;;;;;4.70;4.30;;;;;;;;;;5113281;28;20475;-65
2022/05/16 06:27:06;;;;;;;5.63;4.20;;;;;;;;;;5114590;28;20401;-65
2022/05/16 06:29:33;;;;;;;4.07;3.80;;;;;;;;;;5098547;28;20755;-66
2022/05/16 06:31:58;;;;;;;5.03;4.53;;;;;;;;;;5117083;28;20434;-65
2022/05/16 06:34:24;;;;;;;6.93;5.00;;;;;;;;;;5116743;28;20819;-65
2022/05/16 06:36:51;;;;;;;4.87;4.33;;;;;;;;;;5116686;28;20397;-65
2022/05/16 06:39:16;;;;;;;5.60;4.30;;;;;;;;;;5116526;28;20525;-65
2022/05/16 06:41:42;;;;;;;4.60;3.80;;;;;;;;;;5116574;28;20414;-65
2022/05/16 06:44:14;;;;;;;9.83;4.03;;;;;;;;;;5116807;28;20402;-63
2022/05/16 06:46:40;;;;;;;5.53;4.53;;;;;;;;;;5116566;28;20410;-65
2022/05/16 06:49:06;;;;;;;5.83;4.33;;;;;;;;;;5116721;28;20415;-64
2022/05/16 06:51:32;;;;;;;4.73;4.20;;;;;;;;;;5116540;28;20423;-63
2022/05/16 06:53:58;;;;;;;8.50;4.17;;;;;;;;;;5116330;28;20409;-63
2022/05/16 06:56:24;;;;;;;10.80;4.27;;;;;;;;;;5116164;28;20461;-63
2022/05/16 06:58:50;;;;;;;18.73;4.90;;;;;;;;;;5116314;28;20940;-64
2022/05/16 07:01:16;;;;;;;4.30;3.80;;;;;;;;;;5116228;28;20397;-66
2022/05/16 07:03:43;;;;;;;4.47;4.03;;;;;;;;;;5116162;28;20414;-63
2022/05/16 07:06:09;;;;;;;10.23;4.67;;;;;;;;;;5116115;28;20394;-63
2022/05/16 07:08:36;;;;;;;12.30;4.53;;;;;;;;;;5116076;28;20407;-63
2022/05/16 07:11:02;;;;;;;6.10;4.03;;;;;;;;;;5116021;28;20837;-63
2022/05/16 07:13:29;;;;;;;8.20;4.63;;;;;;;;;;5115846;28;20430;-63
2022/05/16 07:15:55;;;;;;;4.40;3.77;;;;;;;;;;5115915;28;20404;-64
2022/05/16 07:18:22;;;;;;;12.00;4.43;;;;;;;;;;5115789;28;20466;-64
2022/05/16 07:20:49;;;;;;;4.90;4.37;;;;;;;;;;5115760;28;20415;-65
2022/05/16 07:23:15;;;;;;;8.30;3.93;;;;;;;;;;5115854;28;20408;-64
2022/05/16 07:28:25;;;;;;;5.20;3.97;;;;;;;;;;5115971;28;20912;-65
2022/05/16 07:30:52;;;;;;;14.33;5.13;;;;;;;;;;5115671;28;20388;-64
2022/05/16 07:33:18;;;;;;;7.30;4.60;;;;;;;;;;5115628;28;20407;-64
2022/05/16 07:35:45;;;;;;;11.77;4.20;;;;;;;;;;5115506;28;20406;-64
2022/05/16 07:38:11;;;;;;;4.03;3.70;;;;;;;;;;5096451;28;21001;-63
2022/05/16 07:40:38;;;;;;;4.13;3.83;;;;;;;;;;5115484;28;20400;-64
2022/05/16 07:43:04;;;;;;;8.70;4.20;;;;;;;;;;5115356;28;20945;-64
2022/05/16 07:45:31;;;;;;;12.73;4.17;;;;;;;;;;5115361;28;20395;-65
2022/05/16 07:48:02;;;;;;;6.53;4.40;;;;;;;;;;5115263;28;20516;-65
2022/05/16 07:50:28;;;;;;;4.20;3.90;;;;;;;;;;5115581;28;20403;-64
2022/05/16 07:52:55;;;;;;;6.07;4.50;;;;;;;;;;5115193;28;20500;-65
2022/05/16 07:55:22;;;;;;;8.27;4.23;;;;;;;;;;5115271;28;20486;-65
2022/05/16 07:57:48;;;;;;;4.53;4.13;;;;;;;;;;5114893;28;20473;-66
2022/05/16 08:00:16;;;;;;;5.43;4.90;;;;;;;;;;5115006;28;20503;-64
2022/05/16 08:02:41;;;;;;;5.47;4.83;;;;;;;;;;5115088;28;20423;-64
2022/05/16 08:05:08;;;;;;;5.33;4.50;;;;;;;;;;5114885;28;20410;-64
2022/05/16 08:07:34;;;;;;;8.87;4.07;;;;;;;;;;5114844;28;20437;-64
2022/05/16 08:12:45;;;;;;;7.77;4.90;;;;;;;;;;5115121;28;20418;-64
2022/05/16 08:15:11;;;;;;;5.50;4.87;;;;;;;;;;5114798;28;20411;-64
2022/05/16 08:17:37;;;;;;;5.13;4.70;;;;;;;;;;5114483;28;20487;-64
2022/05/16 08:20:05;;;;;;;6.10;4.77;;;;;;;;;;5114653;28;20413;-64
2022/05/16 08:22:32;;;;;;;9.13;4.40;;;;;;;;;;5114926;28;20719;-64
2022/05/16 08:24:58;;;;;;;14.37;5.10;;;;;;;;;;5114581;28;20413;-63
2022/05/16 08:27:25;;;;;;;4.60;4.20;;;;;;;;;;5114747;28;20410;-65
2022/05/16 08:29:51;;;;;;;3.83;3.63;;;;;;;;;;5114768;28;20448;-63
2022/05/16 08:32:20;;;;;;;6.30;4.37;;;;;;;;;;5114517;28;20416;-63
2022/05/16 08:34:46;;;;;;;4.63;4.20;;;;;;;;;;5114457;28;20459;-64
2022/05/16 08:40:03;;;;;;;7.43;4.43;;;;;;;;;;5114386;28;20402;-64
2022/05/16 08:42:32;;;;;;;6.57;4.47;;;;;;;;;;5114183;28;20904;-65
2022/05/16 08:45:01;;;;;;;7.57;3.80;;;;;;;;;;5114305;28;20413;-64
2022/05/16 08:47:30;;;;;;;16.30;4.43;;;;;;;;;;5114220;28;20909;-64
2022/05/16 08:49:57;;;;;;;4.30;3.57;;;;;;;;;;5113364;28;20834;-64
2022/05/16 08:52:30;;;;;;;5.27;4.20;;;;;;;;;;5114000;28;20398;-65
2022/05/16 08:55:04;;;;;;;6.00;4.00;;;;;;;;;;5095730;28;20800;-64
2022/05/16 08:57:50;;;;;;;5.30;3.77;;;;;;;;;;5114267;28;20463;-63
2022/05/16 09:00:21;;;;;;;7.77;3.70;;;;;;;;;;5113946;28;20815;-64
2022/05/16 09:02:48;;;;;;;3.97;3.70;;;;;;;;;;5113995;28;20768;-64
2022/05/16 09:05:23;;;;;;;5.60;3.37;;;;;;;;;;5114060;28;20407;-64
2022/05/16 09:07:51;;;;;;;8.83;3.80;;;;;;;;;;5113848;28;20487;-65
2022/05/16 09:10:20;;;;;;;7.40;3.70;;;;;;;;;;5095641;28;20441;-63
2022/05/16 09:12:46;;;;;;;5.57;3.63;;;;;;;;;;5113870;28;20465;-65
2022/05/16 09:15:18;;;;;;;6.83;3.97;;;;;;;;;;5095613;28;20924;-64
2022/05/16 09:17:56;;;;;;;7.43;4.40;;;;;;;;;;5113725;28;20550;-66
2022/05/16 09:20:34;;;;;;;7.33;4.20;;;;;;;;;;5113828;28;20401;-64
2022/05/16 09:23:00;;;;;;;11.93;4.70;;;;;;;;;;5113771;28;20410;-64
2022/05/16 09:25:30;;;;;;;9.80;5.20;;;;;;;;;;5113807;28;20731;-63
2022/05/16 09:30:44;;;;;;;22.50;6.30;;;;;;;;;;5113731;28;20445;-63
2022/05/16 09:33:10;;;;;;;9.50;6.50;;;;;;;;;;5113757;28;20443;-65
2022/05/16 09:35:50;;;;;;;11.07;7.00;;;;;;;;;;5113716;28;20493;-66
2022/05/16 09:38:18;;;;;;;10.77;6.80;;;;;;;;;;5113556;28;20472;-67
2022/05/16 09:40:55;;;;;;;14.63;7.07;;;;;;;;;;5095717;28;20858;-65
2022/05/16 09:43:23;;;;;;;12.27;7.30;;;;;;;;;;5113673;28;20416;-64
2022/05/16 09:45:52;;;;;;;15.93;6.73;;;;;;;;;;5113538;28;20398;-64
2022/05/16 09:48:19;;;;;;;12.93;7.00;;;;;;;;;;5113486;28;20932;-66
2022/05/16 09:50:57;;;;;;;8.70;5.97;;;;;;;;;;5113776;28;20409;-65
2022/05/16 09:53:28;;;;;;;13.27;6.33;;;;;;;;;;5113512;28;20408;-65
2022/05/16 09:55:57;;;;;;;9.40;6.40;;;;;;;;;;5095025;28;20469;-64
2022/05/16 09:58:31;;;;;;;12.93;5.80;;;;;;;;;;5113584;28;20833;-64
2022/05/16 10:01:01;;;;;;;17.50;7.23;;;;;;;;;;5113409;28;20413;-64
2022/05/16 10:03:44;;;;;;;19.27;6.97;;;;;;;;;;5117118;28;20412;-65
2022/05/16 10:06:27;;;;;;;8.60;6.10;;;;;;;;;;5117313;28;20502;-65
2022/05/16 10:08:53;;;;;;;10.43;6.47;;;;;;;;;;5117566;28;20854;-66
2022/05/16 10:11:21;;;;;;;8.83;6.10;;;;;;;;;;5117183;28;20442;-65
2022/05/16 10:13:48;;;;;;;11.67;6.37;;;;;;;;;;5117313;28;20405;-66
2022/05/16 10:16:15;;;;;;;14.23;6.67;;;;;;;;;;5117113;28;20408;-65
2022/05/16 10:18:46;;;;;;;6.30;5.83;;;;;;;;;;5116996;28;20516;-66
2022/05/16 10:21:18;;;;;;;10.13;6.57;;;;;;;;;;5117017;28;20401;-66
2022/05/16 10:23:45;;;;;;;14.27;5.27;;;;;;;;;;5116984;28;20405;-66
2022/05/16 10:26:16;;;;;;;8.97;5.70;;;;;;;;;;5117217;28;20395;-65
2022/05/16 10:28:46;;;;;;;9.63;5.80;;;;;;;;;;5116897;28;20426;-66
2022/05/16 10:34:03;;;;;;;7.47;5.30;;;;;;;;;;5117049;28;20803;-65
2022/05/16 10:36:30;;;;;;;12.13;5.20;;;;;;;;;;5116770;28;20406;-66
2022/05/16 10:39:03;;;;;;;6.73;5.57;;;;;;;;;;5116383;28;20897;-65
2022/05/16 10:41:37;;;;;;;7.20;4.70;;;;;;;;;;5116517;28;20398;-63
2022/05/16 10:44:22;;;;;;;10.40;5.17;;;;;;;;;;5116547;28;20900;-63
2022/05/16 10:46:59;;;;;;;10.03;4.90;;;;;;;;;;5116307;28;20490;-64
2022/05/16 10:49:29;;;;;;;4.63;4.23;;;;;;;;;;5116475;28;20414;-63
2022/05/16 10:51:58;;;;;;;6.13;5.47;;;;;;;;;;5116393;28;20398;-63
2022/05/16 10:54:25;;;;;;;11.13;4.53;;;;;;;;;;5116307;28;20399;-64
2022/05/16 10:57:04;;;;;;;16.53;6.50;;;;;;;;;;5116160;28;20459;-63
2022/05/16 10:59:52;;;;;;;6.00;5.57;;;;;;;;;;5116446;28;20464;-63
2022/05/16 11:02:24;;;;;;;9.87;6.53;;;;;;;;;;5116289;28;20415;-63
2022/05/16 11:05:10;;;;;;;6.30;5.70;;;;;;;;;;5116214;28;20426;-64
2022/05/16 11:07:36;;;;;;;8.57;5.80;;;;;;;;;;5115779;28;20429;-63
2022/05/16 11:10:05;;;;;;;6.43;5.70;;;;;;;;;;5116121;28;20410;-63
2022/05/16 11:12:34;;;;;;;8.20;5.90;;;;;;;;;;5116018;28;20434;-63
2022/05/16 11:15:18;;;;;;;7.90;5.93;;;;;;;;;;5115234;28;20744;-63
2022/05/16 11:17:44;;;;;;;7.03;5.60;;;;;;;;;;5115880;28;20463;-63
2022/05/16 11:20:21;;;;;;;8.67;5.50;;;;;;;;;;5115776;28;20407;-65
2022/05/16 11:23:10;;;;;;;12.07;5.17;;;;;;;;;;5115918;28;20414;-67
2022/05/16 11:25:43;;;;;;;8.40;4.70;;;;;;;;;;5069093;28;20427;-65
2022/05/16 11:28:08;;;;;;;7.90;5.27;;;;;;;;;;5116007;28;20779;-64
2022/05/16 11:30:49;;;;;;;5.30;4.30;;;;;;;;;;5115663;28;20402;-65
2022/05/16 11:33:37;;;;;;;4.60;4.30;;;;;;;;;;5115619;28;20176;-64
2022/05/16 11:36:17;;;;;;;6.73;5.07;;;;;;;;;;5115623;28;20393;-66
2022/05/16 11:38:58;;;;;;;12.27;4.43;;;;;;;;;;5115448;28;20550;-63
2022/05/16 11:41:43;;;;;;;7.23;3.87;;;;;;;;;;5115333;28;20442;-64
2022/05/16 11:44:28;;;;;;;4.50;4.07;;;;;;;;;;5115709;28;20419;-64
2022/05/16 11:47:09;;;;;;;3.83;3.53;;;;;;;;;;5115246;28;20416;-63
2022/05/16 11:49:44;;;;;;;4.13;3.60;;;;;;;;;;5115289;28;20753;-64
2022/05/16 11:52:21;;;;;;;8.40;3.97;;;;;;;;;;5115159;28;20399;-65
2022/05/16 11:54:51;;;;;;;5.17;3.13;;;;;;;;;;5115071;28;20415;-65
2022/05/16 12:00:33;;;;;;;5.17;3.50;;;;;;;;;;5115372;28;20398;-65
2022/05/16 12:02:58;;;;;;;5.17;3.20;;;;;;;;;;5115049;28;20414;-65
2022/05/16 12:05:26;;;;;;;6.00;4.30;;;;;;;;;;5114936;28;20398;-64
2022/05/16 12:08:01;;;;;;;3.77;3.50;;;;;;;;;;5115048;28;20485;-66
2022/05/16 12:10:29;;;;;;;9.00;2.97;;;;;;;;;;5115187;28;20404;-64
2022/05/16 12:13:17;;;;;;;3.77;3.47;;;;;;;;;;5114823;28;20421;-65
2022/05/16 12:15:43;;;;;;;4.03;3.20;;;;;;;;;;5114874;28;20435;-64
2022/05/16 12:18:29;;;;;;;6.00;3.40;;;;;;;;;;5114651;28;20837;-65
2022/05/16 12:21:03;;;;;;;3.23;3.03;;;;;;;;;;5114603;28;20439;-63
2022/05/16 12:23:47;;;;;;;4.53;3.00;;;;;;;;;;5114673;28;20416;-64
2022/05/16 12:26:29;;;;;;;4.97;3.13;;;;;;;;;;5114431;28;20401;-64
2022/05/16 12:29:11;;;;;;;3.80;3.33;;;;;;;;;;5096280;28;20416;-64
2022/05/16 12:31:49;;;;;;;8.40;3.50;;;;;;;;;;5114511;28;20428;-64
2022/05/16 12:34:42;;;;;;;8.83;3.00;;;;;;;;;;5114430;28;20396;-63
2022/05/16 12:37:11;;;;;;;4.60;3.67;;;;;;;;;;5110094;28;20424;-65
2022/05/16 12:39:43;;;;;;;18.03;3.53;;;;;;;;;;5114400;28;20425;-65
2022/05/16 12:42:18;;;;;;;4.30;3.10;;;;;;;;;;5114365;28;20417;-65
2022/05/16 12:44:44;;;;;;;4.63;3.00;;;;;;;;;;5114363;28;20399;-65
2022/05/16 12:47:32;;;;;;;7.57;3.57;;;;;;;;;;5096071;28;20523;-64
2022/05/16 12:50:13;;;;;;;4.10;3.67;;;;;;;;;;5114531;28;20476;-66
2022/05/16 12:52:42;;;;;;;5.20;4.30;;;;;;;;;;5113356;28;20476;-65
2022/05/16 12:55:19;;;;;;;6.37;3.47;;;;;;;;;;5113975;28;20491;-68
2022/05/16 12:57:51;;;;;;;4.40;4.00;;;;;;;;;;5113420;28;20460;-64
2022/05/16 13:00:20;;;;;;;9.03;3.93;;;;;;;;;;5113905;28;20411;-69
2022/05/16 13:02:56;;;;;;;5.63;4.27;;;;;;;;;;5114099;28;20766;-64
2022/05/16 13:05:22;;;;;;;4.83;4.43;;;;;;;;;;5113539;28;20397;-64
2022/05/16 13:08:03;;;;;;;8.97;3.70;;;;;;;;;;5114025;28;20487;-66
2022/05/16 13:10:32;;;;;;;5.70;3.83;;;;;;;;;;5113731;28;20401;-67
2022/05/16 13:13:13;;;;;;;5.53;4.27;;;;;;;;;;5113838;28;20412;-66
2022/05/16 13:15:45;;;;;;;7.30;4.30;;;;;;;;;;5113007;28;21016;-65
2022/05/16 13:18:13;;;;;;;10.50;4.10;;;;;;;;;;5113612;28;20796;-65
2022/05/16 13:20:40;;;;;;;5.17;4.17;;;;;;;;;;5095380;28;20418;-66
2022/05/16 13:23:06;;;;;;;6.53;4.37;;;;;;;;;;5113602;28;20412;-65
2022/05/16 13:29:21;;;;;;;5.70;4.53;;;;;;;;;;5113833;28;20425;-66
2022/05/16 13:31:05;;;;;;;6.03;4.67;;;;;;;;;;5113875;28;20442;-66
2022/05/16 13:33:35;;;;;;;6.17;5.00;;;;;;;;;;5113641;28;20419;-67
2022/05/16 13:36:14;;;;;;;6.93;3.90;;;;;;;;;;5113809;28;20460;-67
2022/05/16 13:38:40;;;;;;;6.57;3.47;;;;;;;;;;5117864;28;20972;-66
2022/05/16 13:41:06;;;;;;;3.63;3.40;;;;;;;;;;5117875;28;20448;-63
2022/05/16 13:43:32;;;;;;;3.40;3.10;;;;;;;;;;5117668;28;20410;-63
2022/05/16 13:46:01;;;;;;;3.73;3.30;;;;;;;;;;5117833;28;20403;-64
2022/05/16 13:48:27;;;;;;;3.30;3.03;;;;;;;;;;5099378;28;20419;-64
2022/05/16 13:50:56;;;;;;;3.10;2.90;;;;;;;;;;5117619;28;20410;-64
2022/05/16 13:53:26;;;;;;;2.73;2.53;;;;;;;;;;5117690;28;20527;-64
2022/05/16 13:55:52;;;;;;;3.33;2.90;;;;;;;;;;5117447;28;20462;-63
2022/05/16 13:58:19;;;;;;;4.37;3.20;;;;;;;;;;5117065;28;20472;-65
2022/05/16 14:01:05;;;;;;;12.80;2.90;;;;;;;;;;5117469;28;20895;-63
2022/05/16 14:03:32;;;;;;;6.53;4.07;;;;;;;;;;5100065;28;20776;-64
2022/05/16 14:05:59;;;;;;;3.97;3.27;;;;;;;;;;5117259;28;20403;-67
2022/05/16 14:08:40;;;;;;;4.37;2.57;;;;;;;;;;5117314;28;20427;-67
2022/05/16 14:11:07;;;;;;;4.23;3.40;;;;;;;;;;5117247;28;20914;-68
2022/05/16 14:13:34;;;;;;;6.00;2.87;;;;;;;;;;5117568;28;20457;-68
2022/05/16 14:16:06;;;;;;;3.37;3.07;;;;;;;;;;5117145;28;20490;-64
2022/05/16 14:18:42;;;;;;;4.67;2.67;;;;;;;;;;5117086;28;20516;-64
2022/05/16 14:21:19;;;;;;;5.10;2.90;;;;;;;;;;5117098;28;20399;-65
2022/05/16 14:23:58;;;;;;;4.93;3.10;;;;;;;;;;5117041;28;20408;-64
2022/05/16 14:26:24;;;;;;;3.80;3.13;;;;;;;;;;5116978;28;20404;-65
2022/05/16 14:28:52;;;;;;;4.80;2.93;;;;;;;;;;5117075;28;20453;-63
2022/05/16 14:31:41;;;;;;;3.37;3.10;;;;;;;;;;5116859;28;20883;-64
2022/05/16 14:34:27;;;;;;;5.97;3.30;;;;;;;;;;5103706;28;20416;-64
2022/05/16 14:36:54;;;;;;;4.60;3.30;;;;;;;;;;5116754;28;20440;-66
2022/05/16 14:39:23;;;;;;;4.93;3.10;;;;;;;;;;5116626;28;20523;-67
2022/05/16 14:41:53;;;;;;;5.53;3.20;;;;;;;;;;5116810;28;20402;-66
2022/05/16 14:44:21;;;;;;;8.63;3.10;;;;;;;;;;5116895;28;20406;-64
2022/05/16 14:46:56;;;;;;;10.80;3.77;;;;;;;;;;5116538;28;20401;-63
2022/05/16 14:49:22;;;;;;;7.40;3.70;;;;;;;;;;5116409;28;20407;-66
2022/05/16 14:51:49;;;;;;;3.53;3.20;;;;;;;;;;5116747;28;20409;-65
2022/05/16 14:54:17;;;;;;;3.60;3.17;;;;;;;;;;5098021;28;20992;-67
2022/05/16 14:56:43;;;;;;;22.60;3.50;;;;;;;;;;5116220;28;20485;-67
2022/05/16 14:59:09;;;;;;;7.70;2.73;;;;;;;;;;5116297;28;20470;-67
2022/05/16 15:04:20;;;;;;;4.60;2.80;;;;;;;;;;5116345;28;20417;-63
2022/05/16 15:06:46;;;;;;;3.43;3.23;;;;;;;;;;5116207;28;20399;-64
2022/05/16 15:09:13;;;;;;;6.37;2.90;;;;;;;;;;5116040;28;20404;-64
2022/05/16 15:11:52;;;;;;;4.57;2.90;;;;;;;;;;5116005;28;20797;-64
2022/05/16 15:14:19;;;;;;;3.30;3.07;;;;;;;;;;5116135;28;20813;-64
2022/05/16 15:16:45;;;;;;;2.90;2.70;;;;;;;;;;5116029;28;20392;-64
2022/05/16 15:19:12;;;;;;;4.03;3.43;;;;;;;;;;5116132;28;20475;-64
2022/05/16 15:21:39;;;;;;;7.73;3.00;;;;;;;;;;5115909;28;20805;-63
2022/05/16 15:24:07;;;;;;;5.90;3.50;;;;;;;;;;5116095;28;20426;-64
2022/05/16 15:26:33;;;;;;;3.30;3.10;;;;;;;;;;5115982;28;20419;-64
2022/05/16 15:28:59;;;;;;;5.30;3.20;;;;;;;;;;5115827;28;20910;-64
2022/05/16 15:31:25;;;;;;;6.30;3.10;;;;;;;;;;5115710;28;20410;-64
2022/05/16 15:33:51;;;;;;;2.93;2.77;;;;;;;;;;5115728;28;20843;-65